Tropical Cyclones
[Index]
Main Index Home Page Stock Weather Photos Extreme Storms Discussion Storm News and Storm Chasing Reports Tropical Cyclones / Hurricanes / Typhoons Weather Data and Links Wild Fires / Bushfires Weather Observation Techniques Weather Picture Catalogue Tornado Pictures and Reports Stock Video Footage and DVDs for sale
Season 1972-1973 Tropical Cyclone LEILA-GERTRUDE Track Map
Season 1972-1973 Summaries: [BoM-AU] [JTWC-AU] [JTWC-SIO] [JTWC-SPAC] [JTWC-SH]
<<- Previous TC | JTWC 1972-1973 Season | Next TC ->>

click for intensity scale information  Lat/long Grid: Show Hide

 Date Labels: Show Hide

Joint Typhoon Warning Centre Cyclone Data

Name: LEILA-GERTRUDE
Number: 817 / 7315

22 Jan 1973 06:00 UTC to 03 Feb 1973 18:00 UTC

    date/time    lat    long     hPa   cat  kts
1973-01-22 06   12.0    83.2                              
1973-01-22 12   11.9    82.7                              
1973-01-22 18   11.9    82.3                              
1973-01-23 00   11.9    82.0                              
1973-01-23 06   12.0    81.7                              
1973-01-23 12   12.1    81.0                              
1973-01-23 18   12.3    80.3                              
1973-01-24 00   12.4    79.9                              
1973-01-24 06   12.6    79.4                              
1973-01-24 12   12.8    78.3                              
1973-01-24 18   13.0    77.2                              
1973-01-25 00   13.0    76.2                              
1973-01-25 06   12.9    75.3                              
1973-01-25 12   12.9    74.7                              
1973-01-25 18   12.9    74.0                              
1973-01-26 00   12.8    73.4                              
1973-01-26 06   12.7    72.7                              
1973-01-26 12   12.6    72.1                              
1973-01-26 18   12.6    71.4                              
1973-01-27 00   12.5    70.7                              
1973-01-27 06   12.4    70.1                              
1973-01-27 12   12.5    69.8                              
1973-01-27 18   12.6    69.5                              
1973-01-28 00   12.7    69.2                              
1973-01-28 06   12.7    68.9                              
1973-01-28 12   12.6    68.5                              
1973-01-28 18   12.9    68.0                              
1973-01-29 00   13.9    67.6                              
1973-01-29 06   14.9    67.4                              
1973-01-29 12   15.9    67.3                              
1973-01-29 18   16.9    67.3                              
1973-01-30 00   17.8    67.2                              
1973-01-30 06   18.4    67.0                              
1973-01-30 12   18.9    66.5                              
1973-01-30 18   19.4    65.8                              
1973-01-31 00   19.7    65.0                              
1973-01-31 06   20.2    64.3                              
1973-01-31 12   21.0    63.7                              
1973-01-31 18   21.9    63.2                              
1973-02-01 00   22.8    62.8                              
1973-02-01 06   23.7    62.7                              
1973-02-01 12   24.6    62.9                              
1973-02-01 18   25.6    63.4                              
1973-02-02 00   26.8    64.1                              
1973-02-02 06   28.1    64.9                              
1973-02-02 12   29.3    65.9                              
1973-02-02 18   30.6    67.0                              
1973-02-03 00   32.1    68.4                              
1973-02-03 06   33.6    69.9                              
1973-02-03 12   34.5    70.8                              
1973-02-03 18   34.8    71.2                              
Winds are 1-min average.

Tropical cyclone tracks developed by Michael Bath using data from the Joint Typhoon Warning Centre Best Tracks and Google Maps.


[Australian Severe Weather index] [Copyright Notice] [Email Contacts] [Search This Site] [Privacy Policy]
Document: tropical_cyclone_leila-gertrude.htm Updated: 18 September 2016